ADDS - METARS form results

Aviation Digital Data Service (ADDS)

Output produced by METARs form (2108 UTC 19 February 2019)
found at http://aviationweather.gov/metar/data/
 
METAR text: KJOT 192055Z AUTO 12007KT 10SM SCT027 02/M04 A3048 RMK AO2 T00151041
Conditions at: KJOT (JOLIET , IL, US) observed 2055 UTC 19 February 2019
Temperature: 1.5°C (35°F)
Dewpoint: -4.1°C (25°F) [RH = 66%]
Pressure (altimeter): 30.48 inches Hg (1032.3 mb)
Winds: from the ESE (120 degrees) at 8 MPH (7 knots; 3.6 m/s)
Visibility: 10 or more miles (16+ km)
Ceiling: at least 12,000 feet AGL
Clouds: scattered clouds at 2700 feet AGL
Weather: automated observation with no human augmentation;
there may or may not be significant weather present at this time

METAR text: KJOT 192035Z AUTO 07003KT 10SM SCT027 01/M05 A3049 RMK AO2 T00121046
Conditions at: KJOT (JOLIET , IL, US) observed 2035 UTC 19 February 2019
Temperature: 1.2°C (34°F)
Dewpoint: -4.6°C (24°F) [RH = 65%]
Pressure (altimeter): 30.49 inches Hg (1032.6 mb)
Winds: from the ENE (70 degrees) at 3 MPH (3 knots; 1.5 m/s)
Visibility: 10 or more miles (16+ km)
Ceiling: at least 12,000 feet AGL
Clouds: scattered clouds at 2700 feet AGL
Weather: automated observation with no human augmentation;
there may or may not be significant weather present at this time

METAR text: KJOT 192015Z AUTO 11005KT 10SM BKN027 01/M04 A3051 RMK AO2 T00101044
Conditions at: KJOT (JOLIET , IL, US) observed 2015 UTC 19 February 2019
Temperature: 1.0°C (34°F)
Dewpoint: -4.4°C (24°F) [RH = 67%]
Pressure (altimeter): 30.51 inches Hg (1033.3 mb)
Winds: from the ESE (110 degrees) at 6 MPH (5 knots; 2.6 m/s)
Visibility: 10 or more miles (16+ km)
Ceiling: 2700 feet AGL
Clouds: broken clouds at 2700 feet AGL
Weather: automated observation with no human augmentation;
there may or may not be significant weather present at this time